createdAt,value
2023-01-11T00:00:50.387Z,1.30
2023-01-11T00:03:18.285Z,1.77
2023-01-11T00:05:46.104Z,1.13
2023-01-11T00:08:14.060Z,1.20
2023-01-11T00:10:41.769Z,1.20
2023-01-11T00:13:10.628Z,1.00
2023-01-11T00:15:40.403Z,1.07
2023-01-11T00:18:08.292Z,0.90
2023-01-11T00:20:36.125Z,1.00
2023-01-11T00:23:03.719Z,1.00
2023-01-11T00:25:31.314Z,1.07
2023-01-11T00:27:58.881Z,1.10
2023-01-11T00:30:27.746Z,1.00
2023-01-11T00:32:56.173Z,1.27
2023-01-11T00:35:24.066Z,1.10
2023-01-11T00:37:51.680Z,1.20
2023-01-11T00:40:19.285Z,1.13
2023-01-11T00:42:57.659Z,1.00
2023-01-11T00:45:34.497Z,1.40
2023-01-11T00:48:05.923Z,1.00
2023-01-11T00:50:34.270Z,1.00
2023-01-11T00:53:02.166Z,1.47
2023-01-11T00:55:31.755Z,1.07
2023-01-11T00:57:59.385Z,1.10
2023-01-11T01:00:27.543Z,1.03
2023-01-11T01:02:55.168Z,1.10
2023-01-11T01:05:24.163Z,1.20
2023-01-11T01:07:51.779Z,0.93
2023-01-11T01:10:20.131Z,1.20
2023-01-11T01:12:57.077Z,0.90
2023-01-11T01:15:24.685Z,1.10
2023-01-11T01:17:53.675Z,0.90
2023-01-11T01:20:21.789Z,1.10
2023-01-11T01:22:51.009Z,0.90
2023-01-11T01:25:19.040Z,1.00
2023-01-11T01:27:46.710Z,0.97
2023-01-11T01:30:14.559Z,1.00
2023-01-11T01:32:42.195Z,0.90
2023-01-11T01:35:10.088Z,1.00
2023-01-11T01:37:37.829Z,0.90
2023-01-11T01:40:07.400Z,1.07
2023-01-11T01:42:35.003Z,1.00
2023-01-11T01:45:04.246Z,1.10
2023-01-11T01:47:35.503Z,1.03
2023-01-11T01:50:05.478Z,1.00
2023-01-11T01:52:34.046Z,1.00
2023-01-11T01:55:03.824Z,1.07
2023-01-11T01:57:34.249Z,1.20
2023-01-11T02:00:03.187Z,1.13
2023-01-11T02:02:34.204Z,1.17
2023-01-11T02:05:01.882Z,1.10
2023-01-11T02:07:31.771Z,1.13
2023-01-11T02:10:01.407Z,0.90
2023-01-11T02:12:30.888Z,1.20
2023-01-11T02:15:01.543Z,1.30
2023-01-11T02:17:29.202Z,1.10
2023-01-11T02:19:58.754Z,1.00
2023-01-11T02:22:42.259Z,1.20
2023-01-11T02:25:18.895Z,1.13
2023-01-11T02:27:51.416Z,1.27
2023-01-11T02:30:22.908Z,1.13
2023-01-11T02:32:55.910Z,1.20
2023-01-11T02:35:30.850Z,1.20
2023-01-11T02:38:01.652Z,1.10
2023-01-11T02:40:36.663Z,1.10
2023-01-11T02:43:17.570Z,1.00
2023-01-11T02:45:51.150Z,0.80
2023-01-11T02:48:20.537Z,0.90
2023-01-11T02:50:52.040Z,1.00
2023-01-11T02:53:22.885Z,1.30
2023-01-11T02:55:51.826Z,1.00
2023-01-11T02:58:22.371Z,1.00
2023-01-11T03:00:50.522Z,1.07
2023-01-11T03:03:19.555Z,0.90
2023-01-11T03:05:50.384Z,0.90
2023-01-11T03:08:26.223Z,1.03
2023-01-11T03:11:00.909Z,1.03
2023-01-11T03:13:34.127Z,1.47
2023-01-11T03:16:09.225Z,1.37
2023-01-11T03:18:43.338Z,0.90
2023-01-11T03:21:17.022Z,1.07
2023-01-11T03:23:52.846Z,1.07
2023-01-11T03:26:27.976Z,1.17
2023-01-11T03:29:00.891Z,1.20
2023-01-11T03:31:31.843Z,1.10
2023-01-11T03:34:01.222Z,1.07
2023-01-11T03:36:31.473Z,1.17
2023-01-11T03:39:01.280Z,1.10
2023-01-11T03:41:30.801Z,1.20
2023-01-11T03:44:00.960Z,1.10
2023-01-11T03:46:30.341Z,1.30
2023-01-11T03:49:00.227Z,1.10
2023-01-11T03:51:29.328Z,1.10
2023-01-11T03:53:58.621Z,1.40
2023-01-11T03:56:33.508Z,1.47
2023-01-11T03:59:02.602Z,1.10
2023-01-11T04:01:30.428Z,1.30
2023-01-11T04:03:58.108Z,1.30
2023-01-11T04:06:25.926Z,1.00
2023-01-11T04:08:53.565Z,1.07
2023-01-11T04:11:21.219Z,1.00
2023-01-11T04:13:48.886Z,0.97
2023-01-11T04:16:17.819Z,1.13
2023-01-11T04:18:45.449Z,0.83
2023-01-11T04:21:13.077Z,1.10
2023-01-11T04:23:40.692Z,1.53
2023-01-11T04:26:08.301Z,1.00
2023-01-11T04:28:35.976Z,1.40
2023-01-11T04:31:03.641Z,1.10
2023-01-11T04:33:32.509Z,1.17
2023-01-11T04:36:00.135Z,1.07
2023-01-11T04:38:27.740Z,1.30
2023-01-11T04:41:15.301Z,1.10
2023-01-11T04:43:42.324Z,1.30
2023-01-11T04:46:10.873Z,1.50
2023-01-11T04:48:40.180Z,1.20
2023-01-11T04:51:08.218Z,1.30
2023-01-11T04:53:36.161Z,1.33
2023-01-11T04:56:04.541Z,1.10
2023-01-11T04:58:32.529Z,1.47
2023-01-11T05:01:00.256Z,1.30
2023-01-11T05:03:27.925Z,1.00
2023-01-11T05:05:57.342Z,1.17
2023-01-11T05:08:24.979Z,1.07
2023-01-11T05:10:53.083Z,1.00
2023-01-11T05:13:20.823Z,1.30
2023-01-11T05:15:48.931Z,1.00
2023-01-11T05:18:16.581Z,1.00
2023-01-11T05:20:44.226Z,1.20
2023-01-11T05:23:13.401Z,1.00
2023-01-11T05:25:41.023Z,1.20
2023-01-11T05:28:08.568Z,1.10
2023-01-11T05:30:36.244Z,1.07
2023-01-11T05:33:04.311Z,1.10
2023-01-11T05:35:31.920Z,1.37
2023-01-11T05:37:59.523Z,0.90
2023-01-11T05:40:28.388Z,1.10
2023-01-11T05:42:56.001Z,1.10
2023-01-11T05:45:29.996Z,1.00
2023-01-11T05:47:57.552Z,1.00
2023-01-11T05:50:25.178Z,1.10
2023-01-11T05:52:52.804Z,1.10
2023-01-11T05:55:20.504Z,0.93
2023-01-11T05:57:50.592Z,1.27
2023-01-11T06:00:18.407Z,0.90
2023-01-11T06:02:46.058Z,1.03
2023-01-11T06:05:13.871Z,1.20
2023-01-11T06:07:41.477Z,1.00
2023-01-11T06:10:09.776Z,1.17
2023-01-11T06:12:37.428Z,0.80
2023-01-11T06:15:06.949Z,0.80
2023-01-11T06:17:34.593Z,0.80
2023-01-11T06:20:02.172Z,0.90
2023-01-11T06:22:29.757Z,0.80
2023-01-11T06:24:57.341Z,0.90
2023-01-11T06:27:25.030Z,0.90
2023-01-11T06:29:52.693Z,0.70
2023-01-11T06:32:21.560Z,0.80
2023-01-11T06:34:49.113Z,0.80
2023-01-11T06:37:16.810Z,1.00
2023-01-11T06:39:44.421Z,0.87
2023-01-11T06:42:12.086Z,0.90
2023-01-11T06:44:39.776Z,0.90
2023-01-11T06:47:07.336Z,0.80
2023-01-11T06:49:36.224Z,0.87
2023-01-11T06:52:03.822Z,0.80
2023-01-11T06:54:31.412Z,0.80
2023-01-11T06:56:58.995Z,0.90
2023-01-11T06:59:26.628Z,1.20
2023-01-11T07:01:54.244Z,1.30
2023-01-11T07:04:22.438Z,1.10
2023-01-11T07:06:54.331Z,1.10
2023-01-11T07:09:22.215Z,1.10
2023-01-11T07:11:49.882Z,1.30
2023-01-11T07:14:20.022Z,1.40
2023-01-11T07:16:47.759Z,1.20
2023-01-11T07:19:15.890Z,2.47
2023-01-11T07:21:43.503Z,1.70
2023-01-11T07:24:12.524Z,1.73
2023-01-11T07:26:41.414Z,1.00
2023-01-11T07:29:09.148Z,0.97
2023-01-11T07:31:37.078Z,0.87
2023-01-11T07:34:04.697Z,0.80
2023-01-11T07:36:36.011Z,1.00
2023-01-11T07:39:03.600Z,1.10
2023-01-11T07:41:42.351Z,0.97
2023-01-11T07:44:13.087Z,0.90
2023-01-11T07:46:40.863Z,0.80
2023-01-11T07:49:08.576Z,0.90
2023-01-11T07:51:36.347Z,1.27
2023-01-11T07:54:04.102Z,1.50
2023-01-11T07:56:33.050Z,1.90
2023-01-11T07:59:00.669Z,1.47
2023-01-11T08:01:28.294Z,1.60
2023-01-11T08:03:55.968Z,1.50
2023-01-11T08:06:23.556Z,1.20
2023-01-11T08:08:51.234Z,1.40
2023-01-11T08:11:28.398Z,1.57
2023-01-11T08:14:11.105Z,1.50
2023-01-11T08:16:38.895Z,1.63
2023-01-11T08:19:06.671Z,1.30
2023-01-11T08:21:34.306Z,1.80
2023-01-11T08:24:01.883Z,1.70
2023-01-11T08:26:29.605Z,2.17
2023-01-11T08:28:58.421Z,1.50
2023-01-11T08:31:26.277Z,1.67
2023-01-11T08:33:53.985Z,1.60
2023-01-11T08:36:21.589Z,1.37
2023-01-11T08:38:49.538Z,1.70
2023-01-11T08:41:17.182Z,1.40
2023-01-11T08:43:44.826Z,1.40
2023-01-11T08:46:13.819Z,1.87
2023-01-11T08:48:41.504Z,1.40
2023-01-11T08:51:09.085Z,1.37
2023-01-11T08:53:37.673Z,1.40
2023-01-11T08:56:05.363Z,1.43
2023-01-11T08:58:32.997Z,1.00
2023-01-11T09:01:02.732Z,1.33
2023-01-11T09:03:31.926Z,1.20
2023-01-11T09:05:59.513Z,1.20
2023-01-11T09:08:27.681Z,1.07
2023-01-11T09:10:56.301Z,1.50
2023-01-11T09:13:24.040Z,1.33
2023-01-11T09:15:52.228Z,1.70
2023-01-11T09:18:19.832Z,1.40
2023-01-11T09:20:51.356Z,1.30
2023-01-11T09:23:19.023Z,1.40
2023-01-11T09:25:46.605Z,1.47
2023-01-11T09:28:14.367Z,1.30
2023-01-11T09:30:42.446Z,1.10
2023-01-11T09:33:10.004Z,1.50
2023-01-11T09:35:41.757Z,1.40
2023-01-11T09:38:10.691Z,1.50
2023-01-11T09:40:45.957Z,1.20
2023-01-11T09:43:14.971Z,1.43
2023-01-11T09:45:46.699Z,1.30
2023-01-11T09:48:23.875Z,1.40
2023-01-11T09:50:51.683Z,1.50
2023-01-11T09:53:24.279Z,1.97
2023-01-11T09:55:54.091Z,1.80
2023-01-11T09:58:32.332Z,1.60
2023-01-11T10:01:03.236Z,1.33
2023-01-11T10:03:41.298Z,1.87
2023-01-11T10:06:13.059Z,1.13
2023-01-11T10:18:28.735Z,1.47
2023-01-11T10:18:38.447Z,0.90
2023-01-11T10:20:28.739Z,1.43
2023-01-11T10:23:01.427Z,1.30
2023-01-11T10:25:34.997Z,1.20
2023-01-11T10:28:06.023Z,1.40
2023-01-11T10:30:48.339Z,1.57
2023-01-11T10:33:29.888Z,1.10
2023-01-11T10:36:12.421Z,1.20
2023-01-11T10:38:57.599Z,1.30
2023-01-11T10:41:33.954Z,1.63
2023-01-11T10:44:05.314Z,1.50
2023-01-11T10:46:34.402Z,1.50
2023-01-11T10:49:03.978Z,2.13
2023-01-11T10:51:37.569Z,1.77
2023-01-11T10:54:12.303Z,1.80
2023-01-11T10:57:03.090Z,1.80
2023-01-11T10:59:44.034Z,1.80
2023-01-11T11:02:20.512Z,2.10
2023-01-11T11:04:56.113Z,2.43
2023-01-11T11:07:26.660Z,2.00
2023-01-11T11:09:59.134Z,2.10
2023-01-11T11:12:29.830Z,2.50
2023-01-11T11:15:03.127Z,2.10
2023-01-11T11:17:32.995Z,2.37
2023-01-11T11:20:00.697Z,2.10
2023-01-11T11:22:28.316Z,1.80
2023-01-11T11:24:59.376Z,1.93
2023-01-11T11:27:31.476Z,2.13
2023-01-11T11:29:59.141Z,2.10
2023-01-11T11:32:28.528Z,1.70
2023-01-11T11:34:56.395Z,1.80
2023-01-11T11:37:25.288Z,1.90
2023-01-11T11:39:53.771Z,1.87
2023-01-11T11:42:22.533Z,1.90
2023-01-11T11:45:04.989Z,2.07
2023-01-11T11:47:34.930Z,2.10
2023-01-11T11:50:42.629Z,2.27
2023-01-11T11:53:18.609Z,2.50
2023-01-11T11:55:46.282Z,2.20
2023-01-11T11:58:16.179Z,2.30
2023-01-11T12:00:46.071Z,1.80
2023-01-11T12:03:16.575Z,1.77
2023-01-11T12:05:52.999Z,2.03
2023-01-11T12:08:21.565Z,2.10
2023-01-11T12:10:51.849Z,1.93
2023-01-11T12:13:28.029Z,1.97
2023-01-11T12:15:57.458Z,2.10
2023-01-11T12:18:27.796Z,2.27
2023-01-11T12:20:55.702Z,2.40
2023-01-11T12:23:24.565Z,2.27
2023-01-11T12:25:58.896Z,3.00
2023-01-11T12:28:29.946Z,2.27
2023-01-11T12:30:59.440Z,2.33
2023-01-11T12:33:33.811Z,2.17
2023-01-11T12:36:03.471Z,2.60
2023-01-11T12:38:32.570Z,2.47
2023-01-11T12:41:08.545Z,2.97
2023-01-11T12:43:46.164Z,2.27
2023-01-11T12:46:21.226Z,2.30
2023-01-11T12:48:55.786Z,2.20
2023-01-11T12:51:38.376Z,2.23
2023-01-11T12:54:12.934Z,2.03
2023-01-11T12:56:47.188Z,2.77
2023-01-11T12:59:22.865Z,2.80
2023-01-11T13:01:53.680Z,2.23
2023-01-11T13:04:29.203Z,3.00
2023-01-11T13:07:01.681Z,4.17
2023-01-11T13:09:34.525Z,3.10
2023-01-11T13:12:05.142Z,2.63
2023-01-11T13:14:40.402Z,2.57
2023-01-11T13:17:16.767Z,2.17
2023-01-11T13:19:48.684Z,2.10
2023-01-11T13:22:18.401Z,2.90
2023-01-11T13:24:48.053Z,2.20
2023-01-11T13:27:16.529Z,2.00
2023-01-11T13:29:45.949Z,2.20
2023-01-11T13:32:15.079Z,2.43
2023-01-11T13:34:47.219Z,1.80
2023-01-11T13:37:25.072Z,2.73
2023-01-11T13:39:55.470Z,2.43
2023-01-11T13:42:24.799Z,2.50
2023-01-11T13:44:54.134Z,2.33
2023-01-11T13:47:25.141Z,1.70
2023-01-11T13:49:57.446Z,1.53
2023-01-11T13:52:32.431Z,2.10
2023-01-11T13:55:03.228Z,2.10
2023-01-11T13:57:37.272Z,2.03
2023-01-11T14:00:07.562Z,2.17
2023-01-11T14:02:41.651Z,1.83
2023-01-11T14:05:14.221Z,2.10
2023-01-11T14:07:45.566Z,1.90
2023-01-11T14:10:18.840Z,1.60
2023-01-11T14:12:52.909Z,1.87
2023-01-11T14:15:27.298Z,2.43
2023-01-11T14:18:09.028Z,2.03
2023-01-11T14:20:39.996Z,1.73
2023-01-11T14:23:13.203Z,1.60
2023-01-11T14:25:49.270Z,1.60
2023-01-11T14:28:25.945Z,1.67
2023-01-11T14:31:05.864Z,1.50
2023-01-11T14:33:48.627Z,1.70
2023-01-11T14:36:26.044Z,2.00
2023-01-11T14:39:06.428Z,2.27
2023-01-11T14:41:42.970Z,2.10
2023-01-11T14:44:18.587Z,4.13
2023-01-11T14:46:51.814Z,2.03
2023-01-11T14:49:24.156Z,2.10
2023-01-11T14:51:55.764Z,1.83
2023-01-11T14:54:27.497Z,2.07
2023-01-11T14:56:55.877Z,1.90
2023-01-11T14:59:25.812Z,2.13
2023-01-11T15:02:04.247Z,1.77
2023-01-11T15:04:32.725Z,2.90
2023-01-11T15:07:00.709Z,3.30
2023-01-11T15:09:43.187Z,2.93
2023-01-11T15:12:13.805Z,1.80
2023-01-11T15:14:46.522Z,2.10
2023-01-11T15:17:27.163Z,1.90
2023-01-11T15:19:54.920Z,2.00
2023-01-11T15:22:25.265Z,2.20
2023-01-11T15:24:57.679Z,2.23
2023-01-11T15:27:27.366Z,2.20
2023-01-11T15:29:55.641Z,2.30
2023-01-11T15:32:27.137Z,2.17
2023-01-11T15:34:55.585Z,2.40
2023-01-11T15:37:32.166Z,2.70
2023-01-11T15:40:02.750Z,2.30
2023-01-11T15:42:42.441Z,2.73
2023-01-11T15:45:20.573Z,3.07
2023-01-11T15:47:55.005Z,2.93
2023-01-11T15:50:32.805Z,2.30
2023-01-11T15:53:12.898Z,2.37
2023-01-11T15:55:53.959Z,2.33
2023-01-11T15:58:31.981Z,2.13
2023-01-11T16:01:13.191Z,1.80
2023-01-11T16:03:51.688Z,2.40
2023-01-11T16:06:22.741Z,2.10
2023-01-11T16:08:53.939Z,2.60
2023-01-11T16:11:27.902Z,1.53
2023-01-11T16:14:05.742Z,1.70
2023-01-11T16:16:39.209Z,2.03
2023-01-11T16:19:08.187Z,2.20
2023-01-11T16:21:36.855Z,1.90
2023-01-11T16:24:05.690Z,2.00
2023-01-11T16:26:34.689Z,1.87
2023-01-11T16:29:04.393Z,2.23
2023-01-11T16:31:46.860Z,1.87
2023-01-11T16:34:17.597Z,2.33
2023-01-11T16:36:48.802Z,3.57
2023-01-11T16:39:18.035Z,2.50
2023-01-11T16:41:47.136Z,2.33
2023-01-11T16:44:20.232Z,2.50
2023-01-11T16:47:02.645Z,2.97
2023-01-11T16:49:31.601Z,2.03
2023-01-11T16:51:59.871Z,2.03
2023-01-11T16:54:29.587Z,1.60
2023-01-11T16:56:58.148Z,2.30
2023-01-11T16:59:27.230Z,2.07
2023-01-11T17:01:55.583Z,2.30
2023-01-11T17:04:27.719Z,3.53
2023-01-11T17:06:56.624Z,2.97
2023-01-11T17:09:25.801Z,2.57
2023-01-11T17:11:54.179Z,3.47
2023-01-11T17:14:33.084Z,3.17
2023-01-11T17:17:02.026Z,2.40
2023-01-11T17:19:30.918Z,2.50
2023-01-11T17:22:03.292Z,3.47
2023-01-11T17:24:31.615Z,3.47
2023-01-11T17:27:01.841Z,3.13
2023-01-11T17:29:31.189Z,3.20
2023-01-11T17:31:59.770Z,3.07
2023-01-11T17:34:28.637Z,2.77
2023-01-11T17:36:57.681Z,2.80
2023-01-11T17:39:29.514Z,3.00
2023-01-11T17:42:07.495Z,2.70
2023-01-11T17:44:44.954Z,2.97
2023-01-11T17:47:13.406Z,2.77
2023-01-11T17:49:41.345Z,2.80
2023-01-11T17:52:10.181Z,3.70
2023-01-11T17:54:39.193Z,3.50
2023-01-11T17:57:07.041Z,3.00
2023-01-11T17:59:36.141Z,3.47
2023-01-11T18:02:05.672Z,2.90
2023-01-11T18:04:33.384Z,3.07
2023-01-11T18:07:06.749Z,3.73
2023-01-11T18:09:37.036Z,3.20
2023-01-11T18:12:08.600Z,2.97
2023-01-11T18:14:39.575Z,3.23
2023-01-11T18:17:08.178Z,3.47
2023-01-11T18:19:39.003Z,3.93
2023-01-11T18:22:26.251Z,2.87
2023-01-11T18:24:54.284Z,2.53
2023-01-11T18:27:31.716Z,4.63
2023-01-11T18:30:01.332Z,4.20
2023-01-11T18:32:33.333Z,3.73
2023-01-11T18:35:00.910Z,3.50
2023-01-11T18:37:28.532Z,3.07
2023-01-11T18:39:56.220Z,3.23
2023-01-11T18:42:26.546Z,3.13
2023-01-11T18:44:55.445Z,2.97
2023-01-11T18:47:24.111Z,3.30
2023-01-11T18:49:52.166Z,3.90
2023-01-11T18:52:20.328Z,3.53
2023-01-11T18:54:48.321Z,3.53
2023-01-11T18:57:15.892Z,3.20
2023-01-11T18:59:43.618Z,3.57
2023-01-11T19:04:48.362Z,2.43
2023-01-11T19:07:16.603Z,2.60
2023-01-11T19:09:45.417Z,2.23
2023-01-11T19:12:13.912Z,2.30
2023-01-11T19:14:41.491Z,3.53
2023-01-11T19:17:09.360Z,3.43
2023-01-11T19:19:38.473Z,3.80
2023-01-11T19:22:06.529Z,3.23
2023-01-11T19:24:34.287Z,4.13
2023-01-11T19:27:02.092Z,3.87
2023-01-11T19:29:30.230Z,3.30
2023-01-11T19:31:57.887Z,4.07
2023-01-11T19:34:25.538Z,3.03
2023-01-11T19:36:54.480Z,3.23
2023-01-11T19:39:22.058Z,3.33
2023-01-11T19:41:59.780Z,3.57
2023-01-11T19:44:28.352Z,2.80
2023-01-11T19:47:10.039Z,3.07
2023-01-11T19:49:38.441Z,2.10
2023-01-11T19:52:12.692Z,2.50
2023-01-11T19:54:41.767Z,2.37
2023-01-11T19:57:10.572Z,1.53
2023-01-11T19:59:38.160Z,1.90
2023-01-11T20:02:06.200Z,1.80
2023-01-11T20:04:33.903Z,1.40
2023-01-11T20:07:01.519Z,1.40
2023-01-11T20:09:30.440Z,1.70
2023-01-11T20:11:58.753Z,2.03
2023-01-11T20:14:26.546Z,1.97
2023-01-11T20:16:54.108Z,1.27
2023-01-11T20:19:21.711Z,1.30
2023-01-11T20:21:49.304Z,1.93
2023-01-11T20:24:17.013Z,1.40
2023-01-11T20:26:46.473Z,1.23
2023-01-11T20:29:14.443Z,1.77
2023-01-11T20:31:42.050Z,1.40
2023-01-11T20:34:11.978Z,1.40
2023-01-11T20:36:42.982Z,1.30
2023-01-11T20:39:11.725Z,1.23
2023-01-11T20:44:41.727Z,1.30
2023-01-11T20:47:09.472Z,1.70
2023-01-11T20:49:37.179Z,3.13
2023-01-11T20:52:04.793Z,1.40
2023-01-11T20:54:32.442Z,1.20
2023-01-11T20:57:05.290Z,1.37
2023-01-11T20:59:32.979Z,1.10
2023-01-11T21:02:01.921Z,1.03
2023-01-11T21:04:29.798Z,1.30
2023-01-11T21:06:57.405Z,1.20
2023-01-11T21:09:25.004Z,1.17
2023-01-11T21:11:54.006Z,1.10
2023-01-11T21:14:22.097Z,1.03
2023-01-11T21:16:49.735Z,1.20
2023-01-11T21:19:18.675Z,1.00
2023-01-11T21:21:49.536Z,1.10
2023-01-11T21:24:17.696Z,1.20
2023-01-11T21:26:45.922Z,1.30
2023-01-11T21:29:14.325Z,1.30
2023-01-11T21:31:42.430Z,1.20
2023-01-11T21:34:11.287Z,1.00
2023-01-11T21:36:40.397Z,1.50
2023-01-11T21:39:09.201Z,1.53
2023-01-11T21:41:45.247Z,1.57
2023-01-11T21:44:13.345Z,1.40
2023-01-11T21:46:41.273Z,1.67
2023-01-11T21:49:09.063Z,1.20
2023-01-11T21:51:36.735Z,1.50
2023-01-11T21:54:06.250Z,1.37
2023-01-11T21:56:34.015Z,0.97
2023-01-11T21:59:01.611Z,0.90
2023-01-11T22:01:29.742Z,1.10
2023-01-11T22:03:57.512Z,1.07
2023-01-11T22:06:25.234Z,1.20
2023-01-11T22:08:53.239Z,1.10
2023-01-11T22:11:22.104Z,1.43
2023-01-11T22:13:49.692Z,1.07
2023-01-11T22:16:18.624Z,1.17
2023-01-11T22:18:46.858Z,1.13
2023-01-11T22:21:15.461Z,1.73
2023-01-11T22:23:43.023Z,1.30
2023-01-11T22:26:11.743Z,1.10
2023-01-11T22:28:54.606Z,1.50
2023-01-11T22:31:22.409Z,1.30
2023-01-11T22:33:50.076Z,1.33
2023-01-11T22:36:17.886Z,1.50
2023-01-11T22:38:46.558Z,1.40
2023-01-11T22:41:15.087Z,1.40
2023-01-11T22:43:44.707Z,1.57
2023-01-11T22:46:13.953Z,1.33
2023-01-11T22:48:41.607Z,1.00
2023-01-11T22:51:09.778Z,1.10
2023-01-11T22:53:37.462Z,1.03
2023-01-11T22:56:05.226Z,1.00
2023-01-11T22:58:33.031Z,1.03
2023-01-11T23:01:09.976Z,1.13
2023-01-11T23:03:37.644Z,1.13
2023-01-11T23:06:05.438Z,1.60
2023-01-11T23:08:35.606Z,0.97
2023-01-11T23:11:03.579Z,0.97
2023-01-11T23:13:40.617Z,1.10
2023-01-11T23:16:09.698Z,0.90
2023-01-11T23:18:37.312Z,1.10
2023-01-11T23:21:04.923Z,1.00
2023-01-11T23:23:32.733Z,1.00
2023-01-11T23:26:00.311Z,1.00
2023-01-11T23:28:29.742Z,1.17
2023-01-11T23:30:57.295Z,1.47
2023-01-11T23:33:26.255Z,1.17
2023-01-11T23:35:57.157Z,1.17
2023-01-11T23:38:25.017Z,1.17
2023-01-11T23:41:02.552Z,1.20
2023-01-11T23:43:30.189Z,1.10
2023-01-11T23:46:17.800Z,1.17
2023-01-11T23:48:45.789Z,1.03
2023-01-11T23:51:13.357Z,1.10
2023-01-11T23:53:41.020Z,0.90
2023-01-11T23:56:09.003Z,1.30
2023-01-11T23:58:36.543Z,1.10
